Time;durP1;ratioP1;P1;durP2;ratioP2;P2;SDS_P1;SDS_P2;PMS_P1;PMS_P2;Temp;Humidity;BMP_temperature;BMP_pressure;BME280_temperature;BME280_humidity;BME280_pressure;Samples;Min_cycle;Max_cycle;Signal;HPM_P1;HPM_P2
2022/11/08 05:01:03;;;;;;;8.03;4.03;;;6.70;99.90;;;;;;5756154;23;20483;-71
2022/11/08 05:03:30;;;;;;;6.43;5.00;;;6.70;99.90;;;;;;4988396;28;20859;-75
2022/11/08 05:06:00;;;;;;;8.17;5.00;;;6.70;99.90;;;;;;4987228;28;20845;-70
2022/11/08 05:08:27;;;;;;;6.70;5.10;;;6.70;99.90;;;;;;4988330;28;20470;-71
2022/11/08 05:11:00;;;;;;;7.13;4.60;;;6.70;99.90;;;;;;4987812;28;20471;-72
2022/11/08 05:13:27;;;;;;;6.67;4.60;;;6.60;99.90;;;;;;4988222;28;20919;-73
2022/11/08 05:15:54;;;;;;;4.70;4.30;;;6.60;99.90;;;;;;4987362;28;20831;-73
2022/11/08 05:18:22;;;;;;;7.23;4.83;;;6.60;99.90;;;;;;4988026;28;20452;-76
2022/11/08 05:23:38;;;;;;;7.87;4.07;;;6.60;99.90;;;;;;4989166;28;21401;-76
2022/11/08 05:26:05;;;;;;;6.47;4.20;;;6.60;99.90;;;;;;4988596;28;20955;-71
2022/11/08 05:28:32;;;;;;;5.77;4.17;;;6.60;99.90;;;;;;4989212;28;20460;-71
2022/11/08 05:30:59;;;;;;;5.10;4.57;;;6.50;99.90;;;;;;4989183;28;20480;-71
2022/11/08 05:33:27;;;;;;;4.87;4.00;;;6.50;99.90;;;;;;4993020;28;20478;-70
2022/11/08 05:35:54;;;;;;;6.43;4.10;;;6.50;99.90;;;;;;4988450;28;20451;-71
2022/11/08 05:38:21;;;;;;;9.60;3.80;;;6.50;99.90;;;;;;4989283;28;20454;-74
2022/11/08 05:40:48;;;;;;;5.10;4.17;;;6.50;99.90;;;;;;4989018;28;21026;-74
2022/11/08 05:43:15;;;;;;;7.03;4.30;;;6.40;99.90;;;;;;4988535;28;20541;-67
2022/11/08 05:45:42;;;;;;;6.17;3.83;;;6.50;99.90;;;;;;4987235;28;20468;-68
2022/11/08 05:48:08;;;;;;;4.60;3.93;;;6.40;99.90;;;;;;4987713;28;20463;-68
2022/11/08 05:50:37;;;;;;;9.63;4.67;;;6.40;99.90;;;;;;4987336;28;20542;-69
2022/11/08 05:53:03;;;;;;;4.80;4.30;;;6.40;99.90;;;;;;4989314;28;21254;-76
2022/11/08 05:55:30;;;;;;;4.88;3.90;;;6.30;99.90;;;;;;4992281;28;20455;-74
2022/11/08 05:57:57;;;;;;;6.20;3.63;;;6.30;99.90;;;;;;4992934;28;20695;-75
2022/11/08 06:00:24;;;;;;;7.40;4.33;;;6.30;99.90;;;;;;5011692;28;20830;-78
2022/11/08 06:02:50;;;;;;;6.07;3.70;;;6.30;99.90;;;;;;5012045;28;20478;-74
2022/11/08 06:05:17;;;;;;;4.00;3.60;;;6.40;99.90;;;;;;5012836;28;20459;-73
2022/11/08 06:07:46;;;;;;;5.90;4.00;;;6.30;99.90;;;;;;5013041;28;20459;-74
2022/11/08 06:10:12;;;;;;;8.30;3.63;;;6.30;99.90;;;;;;5013219;28;20463;-75
2022/11/08 06:12:39;;;;;;;3.80;3.40;;;6.30;99.90;;;;;;5012927;28;20454;-74
2022/11/08 06:15:08;;;;;;;4.47;3.90;;;6.30;99.90;;;;;;5013536;28;20938;-73
2022/11/08 06:17:34;;;;;;;5.90;4.10;;;6.30;99.90;;;;;;5012876;28;20471;-75
2022/11/08 06:20:02;;;;;;;5.43;3.83;;;6.30;99.90;;;;;;5012409;28;21358;-74
2022/11/08 06:22:31;;;;;;;5.90;4.03;;;6.30;99.90;;;;;;5012011;28;20990;-74
2022/11/08 06:24:59;;;;;;;6.80;4.00;;;6.30;99.90;;;;;;5012598;28;20458;-74
2022/11/08 06:27:26;;;;;;;5.47;4.17;;;6.30;99.90;;;;;;5012053;28;20469;-75
2022/11/08 06:29:53;;;;;;;8.00;4.50;;;6.30;99.90;;;;;;5012429;28;20455;-75
2022/11/08 06:32:20;;;;;;;8.03;5.20;;;6.30;99.90;;;;;;5008736;28;20859;-74
2022/11/08 06:34:47;;;;;;;6.57;4.23;;;6.30;99.90;;;;;;5008078;28;20454;-75
2022/11/08 06:37:15;;;;;;;6.27;4.53;;;6.30;99.90;;;;;;5002838;28;20463;-74
2022/11/08 06:39:43;;;;;;;7.60;4.40;;;6.30;99.90;;;;;;4989147;28;20470;-75
2022/11/08 06:42:11;;;;;;;7.60;4.50;;;6.30;99.90;;;;;;4987652;28;20498;-77
2022/11/08 06:44:38;;;;;;;9.03;3.87;;;6.30;99.90;;;;;;4986718;28;20455;-77
2022/11/08 06:47:05;;;;;;;8.40;4.57;;;6.30;99.90;;;;;;4987322;28;20469;-74
2022/11/08 06:49:32;;;;;;;5.20;3.93;;;6.20;99.90;;;;;;4987491;28;20456;-74
2022/11/08 06:51:59;;;;;;;4.50;3.90;;;6.20;99.90;;;;;;4987561;28;20486;-78
2022/11/08 06:54:25;;;;;;;5.30;3.63;;;6.30;99.90;;;;;;4990330;28;20458;-76
2022/11/08 06:56:54;;;;;;;4.80;3.73;;;6.30;99.90;;;;;;5003715;28;20459;-75
2022/11/08 06:59:22;;;;;;;6.60;4.30;;;6.30;99.90;;;;;;4988230;28;20940;-74
2022/11/08 07:01:49;;;;;;;6.23;4.13;;;6.30;99.90;;;;;;4987652;28;20541;-75
2022/11/08 07:04:16;;;;;;;11.50;4.70;;;6.30;99.90;;;;;;4987873;28;20464;-79
2022/11/08 07:06:43;;;;;;;5.80;4.73;;;6.30;99.90;;;;;;4988231;28;21112;-74
2022/11/08 07:09:09;;;;;;;5.07;3.77;;;6.30;99.90;;;;;;4989289;28;20464;-74
2022/11/08 07:11:36;;;;;;;4.10;3.50;;;6.30;99.90;;;;;;4999677;28;20479;-76
2022/11/08 07:14:03;;;;;;;7.03;4.27;;;6.30;99.90;;;;;;5005492;28;20458;-75
2022/11/08 07:16:31;;;;;;;5.70;4.23;;;6.30;99.90;;;;;;5005862;28;20462;-76
2022/11/08 07:18:58;;;;;;;8.07;4.83;;;6.30;99.90;;;;;;5005640;28;20459;-75
2022/11/08 07:21:25;;;;;;;6.10;4.10;;;6.40;99.90;;;;;;5005894;28;21006;-76
2022/11/08 07:23:52;;;;;;;8.50;4.20;;;6.40;99.90;;;;;;5005479;28;20498;-75
2022/11/08 07:26:18;;;;;;;5.47;3.73;;;6.40;99.90;;;;;;5004961;28;20690;-75
2022/11/08 07:28:45;;;;;;;5.40;4.43;;;6.50;99.90;;;;;;5005534;28;20602;-75
2022/11/08 07:31:12;;;;;;;6.47;4.50;;;6.50;99.90;;;;;;5005485;28;20479;-75
2022/11/08 07:33:40;;;;;;;7.27;4.50;;;6.50;99.90;;;;;;5005351;28;20458;-76
2022/11/08 07:36:07;;;;;;;7.47;4.23;;;6.50;99.90;;;;;;5004421;28;20973;-76
2022/11/08 07:38:34;;;;;;;7.30;4.77;;;6.50;99.90;;;;;;5005268;28;20778;-76
2022/11/08 07:41:02;;;;;;;5.10;4.57;;;6.50;99.90;;;;;;5004996;28;20470;-76
2022/11/08 07:43:29;;;;;;;5.00;4.50;;;6.40;99.90;;;;;;5005679;28;20494;-76
2022/11/08 07:45:58;;;;;;;6.03;3.83;;;6.40;99.90;;;;;;5004809;28;20462;-76
2022/11/08 07:48:25;;;;;;;9.87;4.70;;;6.50;99.90;;;;;;5005612;28;20660;-75
2022/11/08 07:50:54;;;;;;;5.27;4.50;;;6.50;99.90;;;;;;5005013;28;21119;-76
2022/11/08 07:53:21;;;;;;;7.47;4.90;;;6.60;99.90;;;;;;5005313;28;20451;-76
2022/11/08 07:55:48;;;;;;;7.30;4.80;;;6.60;99.90;;;;;;5004642;28;20462;-76
2022/11/08 07:58:15;;;;;;;10.03;4.47;;;6.70;99.90;;;;;;5005466;28;20462;-76
2022/11/08 08:00:44;;;;;;;12.13;5.67;;;6.70;99.90;;;;;;5004552;28;20497;-76
2022/11/08 08:03:13;;;;;;;6.90;5.07;;;6.80;99.90;;;;;;5005169;28;20481;-76
2022/11/08 08:05:41;;;;;;;5.73;4.80;;;6.90;99.90;;;;;;5004507;28;20752;-76
2022/11/08 08:08:11;;;;;;;9.90;4.80;;;6.90;99.90;;;;;;5005183;28;20469;-77
2022/11/08 08:10:39;;;;;;;7.80;4.90;;;6.90;99.90;;;;;;5005037;28;20569;-76
2022/11/08 08:13:06;;;;;;;5.00;4.50;;;6.90;99.90;;;;;;5005312;28;20460;-75
2022/11/08 08:15:33;;;;;;;7.33;4.60;;;7.00;99.90;;;;;;5004708;28;20482;-75
2022/11/08 08:18:01;;;;;;;5.00;4.50;;;7.00;99.90;;;;;;5005293;28;20465;-75
2022/11/08 08:20:28;;;;;;;7.63;5.20;;;7.10;99.90;;;;;;5004712;28;20481;-76
2022/11/08 08:22:55;;;;;;;7.70;5.80;;;7.20;99.90;;;;;;5007219;28;20501;-74
2022/11/08 08:25:23;;;;;;;8.90;5.00;;;7.20;99.90;;;;;;5007850;28;20458;-74
2022/11/08 08:27:52;;;;;;;6.23;4.27;;;7.30;99.90;;;;;;5008747;28;20754;-73
2022/11/08 08:30:19;;;;;;;6.97;4.50;;;7.40;99.90;;;;;;5008342;28;20824;-76
2022/11/08 08:32:47;;;;;;;5.53;4.40;;;7.50;99.90;;;;;;5008547;28;20830;-74
2022/11/08 08:35:17;;;;;;;5.40;3.57;;;7.60;99.90;;;;;;5007813;28;20460;-75
2022/11/08 08:37:44;;;;;;;12.33;5.83;;;7.80;99.90;;;;;;5008675;28;20469;-75
2022/11/08 08:40:12;;;;;;;7.70;5.43;;;8.00;99.90;;;;;;5008040;28;20465;-75
2022/11/08 08:42:40;;;;;;;7.47;5.43;;;8.10;99.90;;;;;;5008191;28;20871;-75
2022/11/08 08:45:08;;;;;;;6.70;5.10;;;8.20;99.90;;;;;;5007936;28;20474;-75
2022/11/08 08:47:35;;;;;;;6.90;3.70;;;8.40;99.90;;;;;;5007927;28;20836;-77
2022/11/08 08:50:02;;;;;;;11.50;5.83;;;8.50;99.90;;;;;;5008117;28;20837;-75
2022/11/08 08:52:32;;;;;;;11.83;5.23;;;8.60;99.90;;;;;;5007906;28;20474;-75
2022/11/08 08:54:59;;;;;;;6.27;4.90;;;8.80;99.90;;;;;;5007776;28;20455;-75
2022/11/08 08:57:26;;;;;;;10.30;4.13;;;8.90;99.90;;;;;;5007828;28;20989;-75
2022/11/08 08:59:54;;;;;;;6.93;4.67;;;9.00;99.90;;;;;;5008052;28;20466;-75
2022/11/08 09:02:20;;;;;;;6.67;4.13;;;9.10;99.90;;;;;;5007503;28;20510;-75
2022/11/08 09:04:47;;;;;;;4.73;3.47;;;9.30;99.90;;;;;;5007152;28;20834;-74
2022/11/08 09:07:14;;;;;;;3.70;2.93;;;9.40;99.90;;;;;;5007643;28;20454;-76
2022/11/08 09:09:41;;;;;;;4.50;2.97;;;9.60;99.90;;;;;;5007927;28;20462;-75
2022/11/08 09:12:08;;;;;;;6.73;3.10;;;9.90;99.90;;;;;;5007667;28;20482;-76
2022/11/08 09:14:35;;;;;;;6.27;2.97;;;10.00;99.90;;;;;;5007020;28;20458;-75
2022/11/08 09:17:03;;;;;;;6.23;2.57;;;10.20;99.90;;;;;;5007660;28;20462;-75
2022/11/08 09:19:30;;;;;;;6.90;2.47;;;10.30;99.90;;;;;;5007938;28;20469;-75
2022/11/08 09:21:57;;;;;;;7.67;3.03;;;10.50;99.90;;;;;;5007532;28;20518;-75
2022/11/08 09:24:24;;;;;;;4.20;2.37;;;10.50;99.90;;;;;;5006963;28;20814;-74
2022/11/08 09:26:50;;;;;;;3.40;2.80;;;10.60;99.90;;;;;;5007411;28;20455;-76
2022/11/08 09:29:17;;;;;;;5.53;2.70;;;10.70;99.90;;;;;;5007095;28;20466;-75
2022/11/08 09:31:44;;;;;;;6.00;2.60;;;10.80;99.90;;;;;;5007225;28;20486;-76
2022/11/08 09:34:12;;;;;;;4.17;2.57;;;11.00;99.90;;;;;;5006652;28;20459;-75
2022/11/08 09:36:42;;;;;;;2.80;2.40;;;11.00;99.90;;;;;;5007463;28;20808;-76
2022/11/08 09:39:08;;;;;;;3.70;2.30;;;11.20;99.90;;;;;;5007440;28;20484;-74
2022/11/08 09:42:04;;;;;;;6.00;2.57;;;11.30;99.90;;;;;;5006934;28;20505;-74
2022/11/08 09:45:02;;;;;;;3.17;2.10;;;11.40;99.90;;;;;;5006595;28;20500;-75
2022/11/08 09:47:33;;;;;;;5.00;2.60;;;11.60;99.90;;;;;;5007164;28;20466;-74
2022/11/08 09:50:07;;;;;;;4.87;2.33;;;11.70;99.90;;;;;;5006824;28;20461;-73
2022/11/08 09:52:35;;;;;;;6.20;2.80;;;11.90;99.90;;;;;;5007419;28;20497;-75
2022/11/08 09:55:16;;;;;;;4.73;2.10;;;12.00;99.90;;;;;;5006681;28;20459;-75
2022/11/08 09:57:55;;;;;;;3.10;2.40;;;12.10;99.90;;;;;;5006712;28;20458;-75
2022/11/08 10:00:22;;;;;;;4.60;3.17;;;12.30;99.90;;;;;;5005390;28;20443;-75
2022/11/08 10:02:49;;;;;;;4.70;2.60;;;12.50;99.90;;;;;;4987004;28;20491;-76
2022/11/08 10:05:19;;;;;;;5.00;2.50;;;12.70;99.90;;;;;;4986878;28;20481;-75
2022/11/08 10:07:52;;;;;;;3.63;2.60;;;12.90;99.90;;;;;;4987684;28;20455;-76
2022/11/08 10:10:39;;;;;;;7.60;2.50;;;13.10;99.90;;;;;;4987409;28;20899;-75
2022/11/08 10:13:16;;;;;;;3.60;2.70;;;13.20;99.90;;;;;;4987151;28;20440;-75
2022/11/08 10:15:50;;;;;;;6.77;3.40;;;13.30;99.90;;;;;;4986297;28;20454;-76
2022/11/08 10:18:43;;;;;;;6.10;3.47;;;13.50;99.90;;;;;;4987594;28;20450;-75
2022/11/08 10:21:28;;;;;;;6.00;2.90;;;13.60;99.90;;;;;;4987136;28;20480;-75
2022/11/08 10:24:02;;;;;;;7.43;3.13;;;13.60;99.90;;;;;;4986791;28;20478;-74
2022/11/08 10:26:35;;;;;;;4.40;3.63;;;13.70;99.90;;;;;;4986853;28;20455;-75
2022/11/08 10:29:08;;;;;;;6.63;3.07;;;13.80;99.90;;;;;;4987044;28;20542;-75
2022/11/08 10:31:38;;;;;;;9.10;3.30;;;13.90;99.90;;;;;;4991184;28;21181;-74
2022/11/08 10:34:13;;;;;;;8.77;3.00;;;14.00;99.90;;;;;;4990814;28;20853;-74
2022/11/08 10:36:44;;;;;;;7.93;3.30;;;14.10;99.90;;;;;;4992714;28;20435;-75
2022/11/08 10:39:15;;;;;;;3.90;2.80;;;14.20;99.90;;;;;;4992964;28;20452;-78
2022/11/08 10:41:46;;;;;;;7.37;2.97;;;14.20;99.90;;;;;;4992238;28;20530;-74
2022/11/08 10:44:15;;;;;;;4.33;2.83;;;14.20;99.90;;;;;;4989694;28;20484;-75
2022/11/08 10:46:44;;;;;;;3.90;3.30;;;14.30;99.90;;;;;;4987302;28;21034;-74
2022/11/08 10:49:15;;;;;;;3.80;2.70;;;14.30;99.90;;;;;;4989736;28;20464;-74
2022/11/08 10:51:45;;;;;;;7.90;3.77;;;14.40;99.90;;;;;;4990698;28;20882;-77
2022/11/08 10:54:40;;;;;;;9.50;2.97;;;14.50;99.90;;;;;;4990409;28;20444;-76
2022/11/08 10:57:08;;;;;;;4.57;3.03;;;14.50;99.90;;;;;;4983986;28;20464;-74
2022/11/08 10:59:34;;;;;;;3.57;2.40;;;14.60;99.90;;;;;;4990944;28;20453;-75
2022/11/08 11:02:02;;;;;;;5.50;3.40;;;14.60;99.90;;;;;;4990499;28;20495;-76
2022/11/08 11:04:30;;;;;;;5.60;4.40;;;14.70;99.90;;;;;;4990856;28;20491;-76
2022/11/08 11:07:04;;;;;;;4.77;4.00;;;14.90;99.90;;;;;;4986243;28;20940;-76
2022/11/08 11:09:33;;;;;;;2.93;2.53;;;15.10;99.90;;;;;;4986650;28;20436;-76
2022/11/08 11:12:06;;;;;;;3.03;2.50;;;15.30;99.90;;;;;;4986568;28;20488;-76
2022/11/08 11:14:33;;;;;;;8.23;2.77;;;15.50;99.90;;;;;;4985773;28;20938;-76
2022/11/08 11:17:06;;;;;;;4.20;2.67;;;15.60;99.90;;;;;;4986382;28;20482;-76
2022/11/08 11:19:33;;;;;;;4.47;2.73;;;15.70;99.90;;;;;;4986660;28;20451;-76
2022/11/08 11:22:06;;;;;;;4.00;2.70;;;15.70;99.90;;;;;;4985872;28;20519;-76
2022/11/08 11:24:35;;;;;;;4.93;2.37;;;15.80;99.90;;;;;;4983820;28;20499;-75
2022/11/08 11:27:05;;;;;;;4.80;2.53;;;15.80;99.90;;;;;;4985753;28;20462;-76
2022/11/08 11:29:33;;;;;;;4.43;2.73;;;16.00;99.90;;;;;;4985426;28;20459;-72
2022/11/08 11:32:22;;;;;;;4.20;2.43;;;16.10;99.90;;;;;;4985726;28;20483;-75
2022/11/08 11:34:53;;;;;;;3.00;2.60;;;16.30;99.90;;;;;;4984764;28;20455;-71
2022/11/08 11:37:34;;;;;;;11.30;2.83;;;16.30;99.90;;;;;;4984924;28;20470;-76
2022/11/08 11:40:13;;;;;;;5.43;3.03;;;16.40;99.90;;;;;;4984997;28;20481;-77
2022/11/08 11:42:47;;;;;;;4.73;3.00;;;16.40;99.90;;;;;;4985205;28;20443;-74
2022/11/08 11:45:19;;;;;;;5.63;2.43;;;16.50;99.90;;;;;;4984569;28;20495;-74
2022/11/08 11:47:51;;;;;;;5.83;2.20;;;16.60;99.90;;;;;;4984952;28;20459;-73
2022/11/08 11:50:31;;;;;;;4.73;2.87;;;16.60;99.90;;;;;;4984661;28;20948;-77
2022/11/08 11:53:03;;;;;;;4.23;2.70;;;16.60;99.90;;;;;;4984716;28;20451;-74
2022/11/08 11:55:38;;;;;;;3.97;2.57;;;16.60;99.90;;;;;;4984614;28;20448;-75
2022/11/08 11:58:15;;;;;;;2.80;2.27;;;16.70;99.90;;;;;;4988911;28;20455;-74
2022/11/08 12:00:47;;;;;;;4.20;2.27;;;16.70;99.90;;;;;;4988801;28;20491;-73
2022/11/08 12:03:30;;;;;;;3.77;2.23;;;16.70;99.90;;;;;;4988765;28;20444;-75
2022/11/08 12:06:23;;;;;;;6.50;2.40;;;16.80;99.90;;;;;;4988396;28;20440;-75
2022/11/08 12:09:15;;;;;;;3.60;2.50;;;16.90;99.90;;;;;;4989167;28;20462;-73
2022/11/08 12:11:52;;;;;;;4.10;2.67;;;16.90;99.90;;;;;;4989304;28;20487;-76
2022/11/08 12:14:39;;;;;;;7.37;2.90;;;16.90;99.90;;;;;;4988526;28;20444;-76
2022/11/08 12:17:29;;;;;;;3.70;2.50;;;16.90;99.90;;;;;;4989274;28;20448;-76
2022/11/08 12:20:11;;;;;;;4.77;2.57;;;16.90;99.90;;;;;;4989188;28;20463;-75
2022/11/08 12:22:50;;;;;;;4.20;2.33;;;16.90;99.90;;;;;;4989149;28;20466;-75
2022/11/08 12:25:26;;;;;;;2.47;2.00;;;16.90;99.90;;;;;;4988662;28;20475;-75
2022/11/08 12:28:00;;;;;;;3.03;2.03;;;16.90;99.90;;;;;;4988917;28;20898;-74
2022/11/08 12:30:37;;;;;;;3.97;2.30;;;17.00;99.90;;;;;;4988922;28;20464;-74
2022/11/08 12:33:23;;;;;;;3.53;2.07;;;17.00;99.90;;;;;;4989065;28;20955;-74
2022/11/08 12:36:01;;;;;;;6.10;2.30;;;17.00;99.90;;;;;;4988211;28;20463;-74
2022/11/08 12:38:34;;;;;;;4.33;2.30;;;17.20;99.90;;;;;;4989061;28;20450;-75
2022/11/08 12:41:10;;;;;;;2.40;1.90;;;17.40;99.90;;;;;;4988988;28;20530;-77
2022/11/08 12:43:57;;;;;;;4.10;2.80;;;17.50;99.90;;;;;;4989348;28;20510;-76
2022/11/08 12:46:25;;;;;;;4.80;2.67;;;17.70;99.90;;;;;;4989097;28;20493;-74
2022/11/08 12:49:08;;;;;;;5.10;3.70;;;17.70;99.90;;;;;;4988813;28;20460;-76
2022/11/08 12:51:51;;;;;;;5.90;2.10;;;17.80;99.90;;;;;;4988696;28;20489;-77
2022/11/08 12:54:25;;;;;;;6.43;2.57;;;17.90;99.90;;;;;;4988123;28;20951;-76
2022/11/08 12:56:56;;;;;;;4.40;2.47;;;17.90;99.90;;;;;;4988822;28;20451;-77
2022/11/08 12:59:26;;;;;;;4.00;2.03;;;18.00;99.90;;;;;;4988817;28;20460;-76
2022/11/08 13:01:53;;;;;;;6.50;2.20;;;18.10;99.90;;;;;;4988502;28;20491;-76
2022/11/08 13:04:31;;;;;;;3.77;2.20;;;18.00;99.90;;;;;;4988153;28;20503;-77
2022/11/08 13:07:03;;;;;;;2.43;2.10;;;18.20;99.90;;;;;;4988821;28;20448;-76
2022/11/08 13:09:39;;;;;;;3.10;1.80;;;18.20;99.90;;;;;;4988194;28;20506;-76
2022/11/08 13:12:19;;;;;;;2.27;1.90;;;18.40;99.90;;;;;;4988494;28;20479;-75
2022/11/08 13:14:46;;;;;;;3.17;2.10;;;18.60;99.90;;;;;;4986834;28;20439;-76
2022/11/08 13:17:16;;;;;;;2.47;2.03;;;18.60;99.90;;;;;;4987605;28;20456;-77
2022/11/08 13:20:06;;;;;;;2.40;1.50;;;18.90;99.90;;;;;;4987577;28;20455;-76
2022/11/08 13:23:01;;;;;;;2.80;2.10;;;18.90;99.90;;;;;;4987318;28;20542;-73
2022/11/08 13:25:42;;;;;;;4.40;1.93;;;18.90;99.90;;;;;;4985315;28;20491;-76
2022/11/08 13:28:37;;;;;;;3.23;2.00;;;18.80;99.90;;;;;;4987182;28;20459;-74
2022/11/08 13:31:13;;;;;;;5.37;1.87;;;18.90;99.90;;;;;;4987252;28;20487;-75
2022/11/08 13:33:46;;;;;;;2.20;1.67;;;19.00;99.90;;;;;;4987257;28;20822;-74
2022/11/08 13:36:26;;;;;;;3.27;1.60;;;19.00;99.90;;;;;;4987002;28;20778;-76
2022/11/08 13:39:01;;;;;;;3.30;1.47;;;19.10;99.90;;;;;;4987458;28;20932;-76
2022/11/08 13:41:27;;;;;;;1.90;1.70;;;19.20;99.90;;;;;;4986698;28;20491;-76
2022/11/08 13:43:58;;;;;;;1.70;1.50;;;19.10;99.90;;;;;;4987119;28;20491;-76
2022/11/08 13:46:55;;;;;;;2.83;1.90;;;19.10;99.90;;;;;;4987083;28;20456;-76
2022/11/08 13:49:22;;;;;;;4.20;1.60;;;19.10;99.90;;;;;;4926502;29;20467;-75
2022/11/08 13:51:50;;;;;;;3.10;1.50;;;19.10;99.90;;;;;;4972590;28;20496;-73
2022/11/08 13:54:48;;;;;;;2.10;1.33;;;19.10;99.90;;;;;;4985906;28;20466;-75
2022/11/08 13:57:20;;;;;;;2.93;1.53;;;19.20;99.90;;;;;;4997129;28;20454;-76
2022/11/08 13:59:58;;;;;;;2.23;1.60;;;19.20;99.90;;;;;;5006338;28;20459;-76
2022/11/08 14:02:41;;;;;;;2.73;1.67;;;19.20;99.90;;;;;;5005862;28;21016;-75
2022/11/08 14:05:36;;;;;;;2.30;1.70;;;19.10;99.90;;;;;;5006195;28;20494;-76
2022/11/08 14:08:28;;;;;;;3.80;1.90;;;19.00;99.90;;;;;;5005145;28;20454;-76
2022/11/08 14:11:23;;;;;;;3.40;1.93;;;19.00;99.90;;;;;;5006953;28;20482;-73
2022/11/08 14:14:14;;;;;;;6.50;2.13;;;19.00;99.90;;;;;;5006876;28;20443;-76
2022/11/08 14:16:57;;;;;;;7.90;2.80;;;18.90;99.90;;;;;;5003014;28;20474;-76
2022/11/08 14:19:26;;;;;;;2.83;1.80;;;18.90;99.90;;;;;;5005949;28;20458;-76
2022/11/08 14:21:56;;;;;;;3.83;1.80;;;18.80;99.90;;;;;;5007638;28;20486;-75
2022/11/08 14:24:26;;;;;;;4.87;1.80;;;18.80;99.90;;;;;;5005960;28;20875;-74
2022/11/08 14:26:53;;;;;;;2.97;1.90;;;18.70;99.90;;;;;;5006577;28;20947;-75
2022/11/08 14:29:23;;;;;;;3.20;1.97;;;18.60;99.90;;;;;;5009533;28;20825;-72
2022/11/08 14:32:04;;;;;;;2.60;2.00;;;18.50;99.90;;;;;;5009650;28;20475;-72
2022/11/08 14:34:33;;;;;;;2.90;1.93;;;18.40;99.90;;;;;;5007204;28;20911;-73
2022/11/08 14:37:00;;;;;;;2.27;1.90;;;18.40;99.90;;;;;;5006372;28;21322;-76
2022/11/08 14:39:30;;;;;;;3.80;2.00;;;18.20;99.90;;;;;;5006432;28;20469;-74
2022/11/08 14:41:59;;;;;;;2.90;1.90;;;18.20;99.90;;;;;;5005817;28;20486;-74
2022/11/08 14:44:27;;;;;;;4.93;1.97;;;18.10;99.90;;;;;;5005719;28;20501;-74
2022/11/08 14:46:54;;;;;;;2.60;1.97;;;18.00;99.90;;;;;;5006210;28;20830;-74
2022/11/08 14:49:29;;;;;;;3.10;1.57;;;17.90;99.90;;;;;;5006177;28;21445;-73
2022/11/08 14:52:04;;;;;;;4.40;1.97;;;17.90;99.90;;;;;;5004947;28;20517;-75
2022/11/08 14:54:39;;;;;;;2.40;1.90;;;17.80;99.90;;;;;;5004036;28;20454;-75
2022/11/08 14:57:30;;;;;;;5.60;2.67;;;17.70;99.90;;;;;;5005138;28;20493;-75
2022/11/08 14:59:57;;;;;;;3.83;2.10;;;17.60;99.90;;;;;;5005022;28;20465;-75
2022/11/08 15:02:25;;;;;;;2.77;2.20;;;17.60;99.90;;;;;;5004507;28;20871;-75
2022/11/08 15:04:53;;;;;;;2.50;1.90;;;17.60;99.90;;;;;;5003785;28;20499;-75
2022/11/08 15:07:22;;;;;;;5.60;2.40;;;17.50;99.90;;;;;;5005298;28;21359;-75
2022/11/08 15:09:50;;;;;;;2.50;2.20;;;17.50;99.90;;;;;;5004721;28;20455;-74
2022/11/08 15:12:19;;;;;;;3.80;2.30;;;17.40;99.90;;;;;;5004534;28;21165;-75
2022/11/08 15:14:50;;;;;;;4.70;2.60;;;17.30;99.90;;;;;;5003903;28;20947;-77
2022/11/08 15:17:31;;;;;;;4.93;2.47;;;17.20;99.90;;;;;;5004454;28;20447;-75
2022/11/08 15:20:20;;;;;;;3.23;1.97;;;17.10;99.90;;;;;;5004700;28;20467;-75
2022/11/08 15:22:47;;;;;;;3.00;2.03;;;17.00;99.90;;;;;;5004900;28;20443;-76
2022/11/08 15:25:28;;;;;;;3.70;2.10;;;17.00;99.90;;;;;;5003895;28;20490;-76
2022/11/08 15:27:57;;;;;;;4.30;2.10;;;16.90;99.90;;;;;;5004762;28;20508;-77
2022/11/08 15:30:37;;;;;;;3.77;2.47;;;16.80;99.90;;;;;;5004625;28;20463;-74
2022/11/08 15:33:22;;;;;;;3.63;2.13;;;16.70;99.90;;;;;;5005237;28;20443;-76
2022/11/08 15:35:51;;;;;;;6.03;2.73;;;16.60;99.90;;;;;;5003972;28;20916;-73
2022/11/08 15:38:30;;;;;;;3.73;2.43;;;16.60;99.90;;;;;;5004822;28;20465;-73
2022/11/08 15:40:59;;;;;;;6.23;2.93;;;16.50;99.90;;;;;;5005088;28;20489;-75
2022/11/08 15:43:40;;;;;;;4.77;2.90;;;16.40;99.90;;;;;;5005317;28;20774;-72
2022/11/08 15:46:22;;;;;;;3.53;2.60;;;16.30;99.90;;;;;;5004265;28;21020;-75
2022/11/08 15:48:56;;;;;;;5.87;2.60;;;16.30;99.90;;;;;;5005871;28;20458;-75
2022/11/08 15:51:24;;;;;;;2.43;2.00;;;16.10;99.90;;;;;;5005225;28;20569;-75
2022/11/08 15:53:53;;;;;;;4.90;3.07;;;16.00;99.90;;;;;;5005486;28;20469;-76
2022/11/08 15:56:20;;;;;;;4.63;2.63;;;16.00;99.90;;;;;;5004821;28;20675;-72
2022/11/08 15:58:47;;;;;;;3.70;2.60;;;15.90;99.90;;;;;;5005584;28;20473;-74
2022/11/08 16:01:19;;;;;;;7.93;4.90;;;15.80;99.90;;;;;;5004626;28;20490;-76
2022/11/08 16:03:46;;;;;;;6.60;3.73;;;15.70;99.90;;;;;;5005610;28;20443;-76
2022/11/08 16:06:13;;;;;;;4.13;3.13;;;15.60;99.90;;;;;;5004294;28;20504;-75
2022/11/08 16:08:42;;;;;;;4.70;3.17;;;15.60;99.90;;;;;;5005212;28;20478;-76
2022/11/08 16:11:15;;;;;;;7.60;4.03;;;15.50;99.90;;;;;;5004834;28;20478;-73
2022/11/08 16:13:42;;;;;;;5.77;3.90;;;15.40;99.90;;;;;;5004630;28;21020;-74
2022/11/08 16:16:12;;;;;;;9.00;3.57;;;15.30;99.90;;;;;;5004567;28;20935;-74
2022/11/08 16:18:39;;;;;;;8.30;3.63;;;15.30;99.90;;;;;;5004755;28;20450;-72
2022/11/08 16:21:06;;;;;;;4.23;3.07;;;15.20;99.90;;;;;;5004882;28;21013;-74
2022/11/08 16:23:33;;;;;;;5.33;3.20;;;15.10;99.90;;;;;;5004608;28;20760;-71
2022/11/08 16:26:02;;;;;;;6.07;3.07;;;15.10;99.90;;;;;;5003888;28;21097;-72
2022/11/08 16:28:32;;;;;;;4.10;3.03;;;15.00;99.90;;;;;;5004686;28;20463;-73
2022/11/08 16:30:59;;;;;;;5.47;3.37;;;15.00;99.90;;;;;;5004990;28;20513;-74
2022/11/08 16:33:28;;;;;;;5.17;3.50;;;14.90;99.90;;;;;;5004892;28;20462;-75
2022/11/08 16:35:57;;;;;;;7.10;3.60;;;14.80;99.90;;;;;;5005235;28;20493;-73
2022/11/08 16:38:26;;;;;;;6.40;3.30;;;14.70;99.90;;;;;;5005149;28;20509;-74
2022/11/08 16:40:53;;;;;;;8.33;4.30;;;14.70;99.90;;;;;;5004989;28;20490;-74
2022/11/08 16:43:26;;;;;;;8.63;4.90;;;14.60;99.90;;;;;;5005894;28;20951;-74
2022/11/08 16:45:53;;;;;;;5.50;4.23;;;14.50;99.90;;;;;;5007620;28;20501;-73
2022/11/08 16:48:24;;;;;;;7.67;4.63;;;14.50;99.90;;;;;;5008374;28;20462;-73
2022/11/08 16:50:51;;;;;;;7.67;4.63;;;14.40;99.90;;;;;;5008093;28;20859;-74
2022/11/08 16:53:19;;;;;;;10.00;5.13;;;14.40;99.90;;;;;;5007669;28;20482;-73
2022/11/08 16:55:47;;;;;;;7.67;4.30;;;14.30;99.90;;;;;;5007468;28;20674;-72
2022/11/08 16:58:14;;;;;;;8.73;5.20;;;14.20;99.90;;;;;;5008103;28;20465;-72
2022/11/08 17:00:47;;;;;;;10.03;4.63;;;14.20;99.90;;;;;;4994335;28;20490;-73
2022/11/08 17:03:18;;;;;;;6.57;4.20;;;14.10;99.90;;;;;;4988304;28;21338;-74
2022/11/08 17:05:45;;;;;;;8.90;4.80;;;14.10;99.90;;;;;;4987795;28;20491;-72
2022/11/08 17:08:12;;;;;;;7.47;4.60;;;14.00;99.90;;;;;;4988280;28;20747;-71
2022/11/08 17:10:39;;;;;;;16.73;9.03;;;14.00;99.90;;;;;;4988582;28;20471;-72
2022/11/08 17:13:06;;;;;;;13.60;8.40;;;13.90;99.90;;;;;;4988429;28;20467;-74
2022/11/08 17:15:33;;;;;;;11.50;7.43;;;13.90;99.90;;;;;;4987463;28;20471;-72
2022/11/08 17:18:02;;;;;;;10.80;6.03;;;13.90;99.90;;;;;;4988177;28;20471;-73
2022/11/08 17:20:28;;;;;;;18.17;12.80;;;13.80;99.90;;;;;;4988177;28;20460;-73
2022/11/08 17:22:56;;;;;;;17.83;10.47;;;13.70;99.90;;;;;;4988262;28;20487;-73
2022/11/08 17:25:24;;;;;;;13.50;8.47;;;13.60;99.90;;;;;;4987266;28;20521;-73
2022/11/08 17:27:51;;;;;;;15.03;10.00;;;13.60;99.90;;;;;;4986975;28;20869;-71
2022/11/08 17:30:19;;;;;;;14.30;9.63;;;13.50;99.90;;;;;;4987053;28;20940;-72
2022/11/08 17:32:46;;;;;;;10.07;7.80;;;13.50;99.90;;;;;;4987634;28;21283;-73
2022/11/08 17:35:14;;;;;;;10.07;7.20;;;13.50;99.90;;;;;;4987600;28;20448;-73
2022/11/08 17:37:41;;;;;;;14.07;7.47;;;13.50;99.90;;;;;;4988172;28;20494;-74
2022/11/08 17:40:09;;;;;;;10.70;6.80;;;13.40;99.90;;;;;;4987859;28;20466;-71
2022/11/08 17:42:37;;;;;;;10.80;7.60;;;13.40;99.90;;;;;;4988060;28;20487;-72
2022/11/08 17:45:05;;;;;;;10.73;6.97;;;13.30;99.90;;;;;;4987083;28;21297;-72
2022/11/08 17:47:32;;;;;;;9.83;6.57;;;13.30;99.90;;;;;;4988010;28;20460;-72
2022/11/08 17:49:59;;;;;;;9.03;6.53;;;13.30;99.90;;;;;;4987916;28;20462;-74
2022/11/08 17:52:27;;;;;;;11.23;7.40;;;13.20;99.90;;;;;;4988094;28;20483;-74
2022/11/08 17:54:54;;;;;;;12.67;8.20;;;13.20;99.90;;;;;;4986989;28;20556;-73
2022/11/08 17:57:21;;;;;;;15.50;8.20;;;13.20;99.90;;;;;;4987601;28;20451;-72
2022/11/08 17:59:49;;;;;;;11.77;8.73;;;13.10;99.90;;;;;;4989395;28;20494;-78
2022/11/08 18:02:16;;;;;;;17.03;8.43;;;13.10;99.90;;;;;;4988303;28;20491;-76
2022/11/08 18:04:43;;;;;;;12.07;8.30;;;13.00;99.90;;;;;;4987741;28;20460;-72
2022/11/08 18:07:09;;;;;;;12.40;8.53;;;13.00;99.90;;;;;;4988504;28;20463;-71
2022/11/08 18:09:38;;;;;;;11.70;8.37;;;13.00;99.90;;;;;;4988171;28;20463;-71
2022/11/08 18:12:05;;;;;;;13.83;8.77;;;12.90;99.90;;;;;;4987855;28;20487;-71